sensor_id;sensor_type;location;lat;lon;timestamp;temperature;humidity
44461;DHT22;30162;53.642;10.640;2022-07-10T00:00:13;17.40;87.50
44461;DHT22;30162;53.642;10.640;2022-07-10T00:02:40;17.50;87.70
44461;DHT22;30162;53.642;10.640;2022-07-10T00:05:07;17.80;87.20
44461;DHT22;30162;53.642;10.640;2022-07-10T00:07:33;17.80;87.30
44461;DHT22;30162;53.642;10.640;2022-07-10T00:09:59;17.70;86.70
44461;DHT22;30162;53.642;10.640;2022-07-10T00:12:25;17.70;87.00
44461;DHT22;30162;53.642;10.640;2022-07-10T00:14:50;17.80;86.90
44461;DHT22;30162;53.642;10.640;2022-07-10T00:17:16;17.80;86.90
44461;DHT22;30162;53.642;10.640;2022-07-10T00:19:41;17.80;86.80
44461;DHT22;30162;53.642;10.640;2022-07-10T00:22:07;17.60;87.00
44461;DHT22;30162;53.642;10.640;2022-07-10T00:24:33;17.60;87.90
44461;DHT22;30162;53.642;10.640;2022-07-10T00:26:59;17.70;87.30
44461;DHT22;30162;53.642;10.640;2022-07-10T00:29:24;17.90;86.40
44461;DHT22;30162;53.642;10.640;2022-07-10T00:31:50;17.80;86.40
44461;DHT22;30162;53.642;10.640;2022-07-10T00:34:16;17.70;86.70
44461;DHT22;30162;53.642;10.640;2022-07-10T00:36:41;17.60;86.90
44461;DHT22;30162;53.642;10.640;2022-07-10T00:39:07;17.70;86.90
44461;DHT22;30162;53.642;10.640;2022-07-10T00:41:32;17.50;87.50
44461;DHT22;30162;53.642;10.640;2022-07-10T00:44:00;17.40;87.60
44461;DHT22;30162;53.642;10.640;2022-07-10T00:46:27;17.50;88.20
44461;DHT22;30162;53.642;10.640;2022-07-10T00:48:53;17.60;87.60
44461;DHT22;30162;53.642;10.640;2022-07-10T00:51:22;17.70;87.70
44461;DHT22;30162;53.642;10.640;2022-07-10T00:53:49;17.70;87.40
44461;DHT22;30162;53.642;10.640;2022-07-10T00:56:21;17.80;87.30
44461;DHT22;30162;53.642;10.640;2022-07-10T00:58:47;18.00;86.80
44461;DHT22;30162;53.642;10.640;2022-07-10T01:01:13;17.90;86.90
44461;DHT22;30162;53.642;10.640;2022-07-10T01:03:39;17.90;87.10
44461;DHT22;30162;53.642;10.640;2022-07-10T01:06:05;17.60;86.50
44461;DHT22;30162;53.642;10.640;2022-07-10T01:08:32;17.60;87.30
44461;DHT22;30162;53.642;10.640;2022-07-10T01:10:58;17.70;87.00
44461;DHT22;30162;53.642;10.640;2022-07-10T01:13:24;17.90;86.50
44461;DHT22;30162;53.642;10.640;2022-07-10T01:15:50;17.90;85.80
44461;DHT22;30162;53.642;10.640;2022-07-10T01:18:18;17.80;85.50
44461;DHT22;30162;53.642;10.640;2022-07-10T01:20:43;17.90;86.00
44461;DHT22;30162;53.642;10.640;2022-07-10T01:23:09;17.60;85.30
44461;DHT22;30162;53.642;10.640;2022-07-10T01:25:35;17.70;86.00
44461;DHT22;30162;53.642;10.640;2022-07-10T01:28:00;17.80;86.30
44461;DHT22;30162;53.642;10.640;2022-07-10T01:30:26;17.90;85.80
44461;DHT22;30162;53.642;10.640;2022-07-10T01:32:52;17.70;85.90
44461;DHT22;30162;53.642;10.640;2022-07-10T01:35:18;17.70;85.60
44461;DHT22;30162;53.642;10.640;2022-07-10T01:37:44;17.70;86.00
44461;DHT22;30162;53.642;10.640;2022-07-10T01:40:11;17.90;85.40
44461;DHT22;30162;53.642;10.640;2022-07-10T01:42:40;17.50;85.40
44461;DHT22;30162;53.642;10.640;2022-07-10T01:45:07;17.80;86.10
44461;DHT22;30162;53.642;10.640;2022-07-10T01:47:33;17.70;86.10
44461;DHT22;30162;53.642;10.640;2022-07-10T01:49:58;17.60;85.70
44461;DHT22;30162;53.642;10.640;2022-07-10T01:52:24;17.80;85.30
44461;DHT22;30162;53.642;10.640;2022-07-10T01:54:50;17.60;85.60
44461;DHT22;30162;53.642;10.640;2022-07-10T01:57:15;17.60;85.50
44461;DHT22;30162;53.642;10.640;2022-07-10T01:59:41;17.60;85.60
44461;DHT22;30162;53.642;10.640;2022-07-10T02:02:07;17.50;84.90
44461;DHT22;30162;53.642;10.640;2022-07-10T02:04:33;17.70;85.20
44461;DHT22;30162;53.642;10.640;2022-07-10T02:07:08;17.50;86.00
44461;DHT22;30162;53.642;10.640;2022-07-10T02:09:34;17.80;86.00
44461;DHT22;30162;53.642;10.640;2022-07-10T02:12:00;17.90;85.10
44461;DHT22;30162;53.642;10.640;2022-07-10T02:14:25;17.70;84.70
44461;DHT22;30162;53.642;10.640;2022-07-10T02:16:51;17.80;85.40
44461;DHT22;30162;53.642;10.640;2022-07-10T02:19:17;17.70;85.30
44461;DHT22;30162;53.642;10.640;2022-07-10T02:21:42;17.60;85.60
44461;DHT22;30162;53.642;10.640;2022-07-10T02:24:08;17.50;86.10
44461;DHT22;30162;53.642;10.640;2022-07-10T02:26:34;17.60;85.40
44461;DHT22;30162;53.642;10.640;2022-07-10T02:29:00;17.60;85.70
44461;DHT22;30162;53.642;10.640;2022-07-10T02:31:25;17.50;85.80
44461;DHT22;30162;53.642;10.640;2022-07-10T02:33:51;17.50;85.90
44461;DHT22;30162;53.642;10.640;2022-07-10T02:36:16;17.70;85.80
44461;DHT22;30162;53.642;10.640;2022-07-10T02:38:42;17.70;85.90
44461;DHT22;30162;53.642;10.640;2022-07-10T02:41:08;17.60;86.10
44461;DHT22;30162;53.642;10.640;2022-07-10T02:43:33;17.60;85.80
44461;DHT22;30162;53.642;10.640;2022-07-10T02:45:59;17.60;86.10
44461;DHT22;30162;53.642;10.640;2022-07-10T02:48:24;17.80;85.80
44461;DHT22;30162;53.642;10.640;2022-07-10T02:50:50;17.80;85.50
44461;DHT22;30162;53.642;10.640;2022-07-10T02:53:16;17.60;86.30
44461;DHT22;30162;53.642;10.640;2022-07-10T02:55:41;17.60;86.50
44461;DHT22;30162;53.642;10.640;2022-07-10T02:58:07;17.70;86.40
44461;DHT22;30162;53.642;10.640;2022-07-10T03:00:35;17.90;85.60
44461;DHT22;30162;53.642;10.640;2022-07-10T03:03:01;17.90;85.50
44461;DHT22;30162;53.642;10.640;2022-07-10T03:05:26;17.80;85.80
44461;DHT22;30162;53.642;10.640;2022-07-10T03:07:52;17.80;85.80
44461;DHT22;30162;53.642;10.640;2022-07-10T03:10:17;17.80;85.80
44461;DHT22;30162;53.642;10.640;2022-07-10T03:12:43;17.80;85.40
44461;DHT22;30162;53.642;10.640;2022-07-10T03:15:09;17.90;85.70
44461;DHT22;30162;53.642;10.640;2022-07-10T03:17:35;18.10;85.70
44461;DHT22;30162;53.642;10.640;2022-07-10T03:20:00;17.90;85.60
44461;DHT22;30162;53.642;10.640;2022-07-10T03:22:26;17.80;85.90
44461;DHT22;30162;53.642;10.640;2022-07-10T03:24:54;17.80;86.00
44461;DHT22;30162;53.642;10.640;2022-07-10T03:27:19;17.90;86.30
44461;DHT22;30162;53.642;10.640;2022-07-10T03:29:45;17.80;86.40
44461;DHT22;30162;53.642;10.640;2022-07-10T03:32:11;17.90;86.20
44461;DHT22;30162;53.642;10.640;2022-07-10T03:34:37;18.00;85.90
44461;DHT22;30162;53.642;10.640;2022-07-10T03:37:03;17.90;85.40
44461;DHT22;30162;53.642;10.640;2022-07-10T03:39:28;17.70;86.10
44461;DHT22;30162;53.642;10.640;2022-07-10T03:41:54;17.90;86.30
44461;DHT22;30162;53.642;10.640;2022-07-10T03:44:20;17.80;86.20
44461;DHT22;30162;53.642;10.640;2022-07-10T03:46:45;17.60;86.20
44461;DHT22;30162;53.642;10.640;2022-07-10T03:49:11;17.70;86.60
44461;DHT22;30162;53.642;10.640;2022-07-10T03:51:36;17.70;86.80
44461;DHT22;30162;53.642;10.640;2022-07-10T03:54:02;17.80;86.70
44461;DHT22;30162;53.642;10.640;2022-07-10T03:56:28;18.00;86.30
44461;DHT22;30162;53.642;10.640;2022-07-10T03:59:12;18.00;85.60
44461;DHT22;30162;53.642;10.640;2022-07-10T04:01:38;18.00;85.90
44461;DHT22;30162;53.642;10.640;2022-07-10T04:04:03;18.00;86.00
44461;DHT22;30162;53.642;10.640;2022-07-10T04:06:29;17.90;86.20
44461;DHT22;30162;53.642;10.640;2022-07-10T04:08:55;18.00;86.50
44461;DHT22;30162;53.642;10.640;2022-07-10T04:11:20;18.00;86.50
44461;DHT22;30162;53.642;10.640;2022-07-10T04:13:46;17.90;86.50
44461;DHT22;30162;53.642;10.640;2022-07-10T04:16:11;18.00;86.40
44461;DHT22;30162;53.642;10.640;2022-07-10T04:18:41;18.10;86.50
44461;DHT22;30162;53.642;10.640;2022-07-10T04:21:07;18.00;86.30
44461;DHT22;30162;53.642;10.640;2022-07-10T04:23:33;18.10;86.40
44461;DHT22;30162;53.642;10.640;2022-07-10T04:25:59;18.20;85.90
44461;DHT22;30162;53.642;10.640;2022-07-10T04:28:25;18.20;86.40
44461;DHT22;30162;53.642;10.640;2022-07-10T04:30:51;18.20;86.90
44461;DHT22;30162;53.642;10.640;2022-07-10T04:33:17;18.20;86.60
44461;DHT22;30162;53.642;10.640;2022-07-10T04:35:42;18.40;86.60
44461;DHT22;30162;53.642;10.640;2022-07-10T04:38:08;18.50;85.80
44461;DHT22;30162;53.642;10.640;2022-07-10T04:40:33;18.50;85.40
44461;DHT22;30162;53.642;10.640;2022-07-10T04:42:59;18.50;85.50
44461;DHT22;30162;53.642;10.640;2022-07-10T04:45:25;18.30;85.40
44461;DHT22;30162;53.642;10.640;2022-07-10T04:47:51;18.50;86.20
44461;DHT22;30162;53.642;10.640;2022-07-10T04:50:17;18.50;85.20
44461;DHT22;30162;53.642;10.640;2022-07-10T04:52:42;18.50;84.90
44461;DHT22;30162;53.642;10.640;2022-07-10T04:55:08;18.60;85.30
44461;DHT22;30162;53.642;10.640;2022-07-10T04:57:34;18.60;84.80
44461;DHT22;30162;53.642;10.640;2022-07-10T05:00:00;18.60;84.90
44461;DHT22;30162;53.642;10.640;2022-07-10T05:02:26;18.50;85.20
44461;DHT22;30162;53.642;10.640;2022-07-10T05:04:51;18.80;85.00
44461;DHT22;30162;53.642;10.640;2022-07-10T05:07:17;18.90;85.00
44461;DHT22;30162;53.642;10.640;2022-07-10T05:09:43;18.70;84.30
44461;DHT22;30162;53.642;10.640;2022-07-10T05:12:09;18.60;84.40
44461;DHT22;30162;53.642;10.640;2022-07-10T05:14:35;18.50;84.70
44461;DHT22;30162;53.642;10.640;2022-07-10T05:17:00;18.70;84.10
44461;DHT22;30162;53.642;10.640;2022-07-10T05:19:26;19.00;83.70
44461;DHT22;30162;53.642;10.640;2022-07-10T05:21:52;19.20;82.50
44461;DHT22;30162;53.642;10.640;2022-07-10T05:24:17;19.40;81.30
44461;DHT22;30162;53.642;10.640;2022-07-10T05:26:43;19.70;81.70
44461;DHT22;30162;53.642;10.640;2022-07-10T05:29:08;19.80;81.10
44461;DHT22;30162;53.642;10.640;2022-07-10T05:31:34;19.40;80.10
44461;DHT22;30162;53.642;10.640;2022-07-10T05:34:00;19.30;80.70
44461;DHT22;30162;53.642;10.640;2022-07-10T05:36:25;19.20;81.50
44461;DHT22;30162;53.642;10.640;2022-07-10T05:38:51;19.30;79.80
44461;DHT22;30162;53.642;10.640;2022-07-10T05:41:16;19.80;81.00
44461;DHT22;30162;53.642;10.640;2022-07-10T05:43:42;19.80;79.30
44461;DHT22;30162;53.642;10.640;2022-07-10T05:46:07;19.70;78.10
44461;DHT22;30162;53.642;10.640;2022-07-10T05:48:33;19.90;79.60
44461;DHT22;30162;53.642;10.640;2022-07-10T05:50:59;19.80;78.00
44461;DHT22;30162;53.642;10.640;2022-07-10T05:53:24;20.10;77.60
44461;DHT22;30162;53.642;10.640;2022-07-10T05:55:50;20.20;77.90
44461;DHT22;30162;53.642;10.640;2022-07-10T05:58:16;20.40;78.20
44461;DHT22;30162;53.642;10.640;2022-07-10T06:00:42;20.30;77.30
44461;DHT22;30162;53.642;10.640;2022-07-10T06:03:09;20.30;77.40
44461;DHT22;30162;53.642;10.640;2022-07-10T06:05:35;20.00;77.40
44461;DHT22;30162;53.642;10.640;2022-07-10T06:08:01;20.10;77.50
44461;DHT22;30162;53.642;10.640;2022-07-10T06:10:27;19.90;77.10
44461;DHT22;30162;53.642;10.640;2022-07-10T06:12:52;19.90;77.50
44461;DHT22;30162;53.642;10.640;2022-07-10T06:15:18;19.90;77.50
44461;DHT22;30162;53.642;10.640;2022-07-10T06:17:43;19.70;77.60
44461;DHT22;30162;53.642;10.640;2022-07-10T06:20:10;19.60;78.10
44461;DHT22;30162;53.642;10.640;2022-07-10T06:22:35;19.90;78.50
44461;DHT22;30162;53.642;10.640;2022-07-10T06:25:06;20.10;77.80
44461;DHT22;30162;53.642;10.640;2022-07-10T06:27:32;20.10;77.20
44461;DHT22;30162;53.642;10.640;2022-07-10T06:29:58;20.20;77.00
44461;DHT22;30162;53.642;10.640;2022-07-10T06:32:24;20.20;76.80
44461;DHT22;30162;53.642;10.640;2022-07-10T06:34:51;20.60;75.80
44461;DHT22;30162;53.642;10.640;2022-07-10T06:37:17;20.70;75.80
44461;DHT22;30162;53.642;10.640;2022-07-10T06:39:42;21.10;75.20
44461;DHT22;30162;53.642;10.640;2022-07-10T06:42:08;21.30;73.80
44461;DHT22;30162;53.642;10.640;2022-07-10T06:44:34;20.70;73.00
44461;DHT22;30162;53.642;10.640;2022-07-10T06:47:00;20.50;74.40
44461;DHT22;30162;53.642;10.640;2022-07-10T06:49:46;20.40;74.10
44461;DHT22;30162;53.642;10.640;2022-07-10T06:52:12;20.30;74.60
44461;DHT22;30162;53.642;10.640;2022-07-10T06:54:38;20.30;73.40
44461;DHT22;30162;53.642;10.640;2022-07-10T06:57:04;20.20;74.60
44461;DHT22;30162;53.642;10.640;2022-07-10T06:59:30;20.40;74.90
44461;DHT22;30162;53.642;10.640;2022-07-10T07:01:56;20.30;74.80
44461;DHT22;30162;53.642;10.640;2022-07-10T07:04:21;20.10;74.70
44461;DHT22;30162;53.642;10.640;2022-07-10T07:06:47;20.00;75.20
44461;DHT22;30162;53.642;10.640;2022-07-10T07:09:12;19.70;75.20
44461;DHT22;30162;53.642;10.640;2022-07-10T07:11:38;19.70;75.70
44461;DHT22;30162;53.642;10.640;2022-07-10T07:14:04;19.50;76.10
44461;DHT22;30162;53.642;10.640;2022-07-10T07:16:29;19.50;76.90
44461;DHT22;30162;53.642;10.640;2022-07-10T07:19:08;19.60;77.20
44461;DHT22;30162;53.642;10.640;2022-07-10T07:21:35;19.40;77.10
44461;DHT22;30162;53.642;10.640;2022-07-10T07:24:19;19.30;77.90
44461;DHT22;30162;53.642;10.640;2022-07-10T07:26:45;19.80;77.40
44461;DHT22;30162;53.642;10.640;2022-07-10T07:29:15;19.70;77.60
44461;DHT22;30162;53.642;10.640;2022-07-10T07:31:42;19.40;78.00
44461;DHT22;30162;53.642;10.640;2022-07-10T07:34:08;19.50;78.10
44461;DHT22;30162;53.642;10.640;2022-07-10T07:36:33;19.70;78.10
44461;DHT22;30162;53.642;10.640;2022-07-10T07:38:59;19.80;78.80
44461;DHT22;30162;53.642;10.640;2022-07-10T07:41:25;20.30;77.70
44461;DHT22;30162;53.642;10.640;2022-07-10T07:43:50;20.70;76.20
44461;DHT22;30162;53.642;10.640;2022-07-10T07:46:16;21.00;75.40
44461;DHT22;30162;53.642;10.640;2022-07-10T07:48:42;20.80;74.00
44461;DHT22;30162;53.642;10.640;2022-07-10T07:51:08;20.70;74.20
44461;DHT22;30162;53.642;10.640;2022-07-10T07:53:33;20.30;75.10
44461;DHT22;30162;53.642;10.640;2022-07-10T07:55:59;20.30;76.00
44461;DHT22;30162;53.642;10.640;2022-07-10T07:58:24;20.40;75.60
44461;DHT22;30162;53.642;10.640;2022-07-10T08:00:50;20.30;77.50
44461;DHT22;30162;53.642;10.640;2022-07-10T08:03:16;20.10;76.50
44461;DHT22;30162;53.642;10.640;2022-07-10T08:05:42;20.20;77.30
44461;DHT22;30162;53.642;10.640;2022-07-10T08:08:08;20.30;77.30
44461;DHT22;30162;53.642;10.640;2022-07-10T08:10:34;20.90;76.90
44461;DHT22;30162;53.642;10.640;2022-07-10T08:13:00;21.60;75.10
44461;DHT22;30162;53.642;10.640;2022-07-10T08:15:26;21.90;74.30
44461;DHT22;30162;53.642;10.640;2022-07-10T08:17:53;22.40;74.50
44461;DHT22;30162;53.642;10.640;2022-07-10T08:20:21;22.60;73.80
44461;DHT22;30162;53.642;10.640;2022-07-10T08:22:47;22.70;73.40
44461;DHT22;30162;53.642;10.640;2022-07-10T08:25:14;22.90;72.70
44461;DHT22;30162;53.642;10.640;2022-07-10T08:27:39;23.10;71.00
44461;DHT22;30162;53.642;10.640;2022-07-10T08:30:06;23.30;70.70
44461;DHT22;30162;53.642;10.640;2022-07-10T08:32:32;23.30;71.70
44461;DHT22;30162;53.642;10.640;2022-07-10T08:34:57;23.50;71.00
44461;DHT22;30162;53.642;10.640;2022-07-10T08:37:24;23.60;69.00
44461;DHT22;30162;53.642;10.640;2022-07-10T08:39:50;23.70;71.70
44461;DHT22;30162;53.642;10.640;2022-07-10T08:42:17;23.60;69.80
44461;DHT22;30162;53.642;10.640;2022-07-10T08:44:43;23.30;69.00
44461;DHT22;30162;53.642;10.640;2022-07-10T08:47:09;23.50;71.20
44461;DHT22;30162;53.642;10.640;2022-07-10T08:49:37;23.70;69.00
44461;DHT22;30162;53.642;10.640;2022-07-10T08:52:20;24.30;69.40
44461;DHT22;30162;53.642;10.640;2022-07-10T08:54:48;24.50;67.00
44461;DHT22;30162;53.642;10.640;2022-07-10T08:57:15;24.40;66.50
44461;DHT22;30162;53.642;10.640;2022-07-10T08:59:42;23.70;66.10
44461;DHT22;30162;53.642;10.640;2022-07-10T09:02:08;23.10;67.40
44461;DHT22;30162;53.642;10.640;2022-07-10T09:04:33;23.10;68.20
44461;DHT22;30162;53.642;10.640;2022-07-10T09:06:59;23.50;69.60
44461;DHT22;30162;53.642;10.640;2022-07-10T09:09:25;24.20;68.30
44461;DHT22;30162;53.642;10.640;2022-07-10T09:11:56;24.40;67.20
44461;DHT22;30162;53.642;10.640;2022-07-10T09:14:22;24.60;65.50
44461;DHT22;30162;53.642;10.640;2022-07-10T09:16:50;25.00;65.20
44461;DHT22;30162;53.642;10.640;2022-07-10T09:19:25;25.20;65.30
44461;DHT22;30162;53.642;10.640;2022-07-10T09:21:52;25.30;63.80
44461;DHT22;30162;53.642;10.640;2022-07-10T09:24:19;25.30;65.30
44461;DHT22;30162;53.642;10.640;2022-07-10T09:29:24;24.50;63.40
44461;DHT22;30162;53.642;10.640;2022-07-10T09:31:54;23.90;64.50
44461;DHT22;30162;53.642;10.640;2022-07-10T09:37:21;24.20;66.30
44461;DHT22;30162;53.642;10.640;2022-07-10T09:45:12;22.90;65.00
44461;DHT22;30162;53.642;10.640;2022-07-10T09:47:39;22.80;65.60
44461;DHT22;30162;53.642;10.640;2022-07-10T09:50:27;23.40;64.00
44461;DHT22;30162;53.642;10.640;2022-07-10T09:52:55;24.10;64.70
44461;DHT22;30162;53.642;10.640;2022-07-10T09:55:23;24.70;64.00
44461;DHT22;30162;53.642;10.640;2022-07-10T09:57:57;24.50;61.20
44461;DHT22;30162;53.642;10.640;2022-07-10T10:00:26;24.80;62.90
44461;DHT22;30162;53.642;10.640;2022-07-10T10:02:55;24.90;61.70
44461;DHT22;30162;53.642;10.640;2022-07-10T10:07:56;24.20;61.10
44461;DHT22;30162;53.642;10.640;2022-07-10T10:10:24;24.40;62.70
44461;DHT22;30162;53.642;10.640;2022-07-10T10:12:55;24.70;62.10
44461;DHT22;30162;53.642;10.640;2022-07-10T10:15:24;24.40;59.60
44461;DHT22;30162;53.642;10.640;2022-07-10T10:17:51;23.90;62.50
44461;DHT22;30162;53.642;10.640;2022-07-10T10:20:18;24.40;62.80
44461;DHT22;30162;53.642;10.640;2022-07-10T10:23:09;24.80;60.40
44461;DHT22;30162;53.642;10.640;2022-07-10T10:25:37;24.60;62.00
44461;DHT22;30162;53.642;10.640;2022-07-10T10:28:05;24.00;61.50
44461;DHT22;30162;53.642;10.640;2022-07-10T10:30:32;23.60;62.40
44461;DHT22;30162;53.642;10.640;2022-07-10T10:33:00;23.40;63.60
44461;DHT22;30162;53.642;10.640;2022-07-10T10:35:46;23.70;62.50
44461;DHT22;30162;53.642;10.640;2022-07-10T10:38:14;23.80;62.10
44461;DHT22;30162;53.642;10.640;2022-07-10T10:40:43;24.00;62.90
44461;DHT22;30162;53.642;10.640;2022-07-10T10:43:16;24.30;61.50
44461;DHT22;30162;53.642;10.640;2022-07-10T10:45:46;24.80;58.70
44461;DHT22;30162;53.642;10.640;2022-07-10T10:48:16;24.90;58.90
44461;DHT22;30162;53.642;10.640;2022-07-10T10:50:53;24.70;60.40
44461;DHT22;30162;53.642;10.640;2022-07-10T10:53:24;24.80;61.30
44461;DHT22;30162;53.642;10.640;2022-07-10T10:58:43;25.00;60.20
44461;DHT22;30162;53.642;10.640;2022-07-10T11:06:54;24.40;62.40
44461;DHT22;30162;53.642;10.640;2022-07-10T11:09:27;25.50;62.60
44461;DHT22;30162;53.642;10.640;2022-07-10T11:14:30;25.70;58.90
44461;DHT22;30162;53.642;10.640;2022-07-10T11:16:57;25.20;59.10
44461;DHT22;30162;53.642;10.640;2022-07-10T11:19:24;25.40;58.90
44461;DHT22;30162;53.642;10.640;2022-07-10T11:21:58;25.50;59.30
44461;DHT22;30162;53.642;10.640;2022-07-10T11:30:12;25.70;60.30
44461;DHT22;30162;53.642;10.640;2022-07-10T11:32:38;25.10;60.60
44461;DHT22;30162;53.642;10.640;2022-07-10T11:35:06;24.60;60.10
44461;DHT22;30162;53.642;10.640;2022-07-10T11:37:36;24.60;60.30
44461;DHT22;30162;53.642;10.640;2022-07-10T11:40:11;25.10;62.10
44461;DHT22;30162;53.642;10.640;2022-07-10T11:42:56;25.50;60.00
44461;DHT22;30162;53.642;10.640;2022-07-10T11:45:25;25.80;60.00
44461;DHT22;30162;53.642;10.640;2022-07-10T11:47:51;25.50;58.70
44461;DHT22;30162;53.642;10.640;2022-07-10T11:50:17;25.30;59.70
44461;DHT22;30162;53.642;10.640;2022-07-10T11:52:42;25.00;59.80
44461;DHT22;30162;53.642;10.640;2022-07-10T11:55:18;24.90;59.10
44461;DHT22;30162;53.642;10.640;2022-07-10T11:57:44;24.50;60.20
44461;DHT22;30162;53.642;10.640;2022-07-10T12:00:28;24.50;59.00
44461;DHT22;30162;53.642;10.640;2022-07-10T12:02:56;24.60;59.20
44461;DHT22;30162;53.642;10.640;2022-07-10T12:05:36;24.40;59.80
44461;DHT22;30162;53.642;10.640;2022-07-10T12:08:02;24.20;60.60
44461;DHT22;30162;53.642;10.640;2022-07-10T12:10:29;24.20;60.40
44461;DHT22;30162;53.642;10.640;2022-07-10T12:13:09;23.90;60.50
44461;DHT22;30162;53.642;10.640;2022-07-10T12:15:38;24.20;61.40
44461;DHT22;30162;53.642;10.640;2022-07-10T12:18:24;24.50;61.80
44461;DHT22;30162;53.642;10.640;2022-07-10T12:20:54;24.70;61.90
44461;DHT22;30162;53.642;10.640;2022-07-10T12:23:21;24.40;59.70
44461;DHT22;30162;53.642;10.640;2022-07-10T12:25:49;24.40;60.90
44461;DHT22;30162;53.642;10.640;2022-07-10T12:28:15;24.00;61.20
44461;DHT22;30162;53.642;10.640;2022-07-10T12:30:42;24.00;61.10
44461;DHT22;30162;53.642;10.640;2022-07-10T12:33:19;24.10;60.80
44461;DHT22;30162;53.642;10.640;2022-07-10T12:35:55;24.20;61.80
44461;DHT22;30162;53.642;10.640;2022-07-10T12:38:28;24.20;61.60
44461;DHT22;30162;53.642;10.640;2022-07-10T12:41:11;24.10;62.00
44461;DHT22;30162;53.642;10.640;2022-07-10T12:43:38;24.10;62.60
44461;DHT22;30162;53.642;10.640;2022-07-10T12:46:21;24.10;62.90
44461;DHT22;30162;53.642;10.640;2022-07-10T12:49:07;24.10;62.20
44461;DHT22;30162;53.642;10.640;2022-07-10T12:51:42;23.50;62.10
44461;DHT22;30162;53.642;10.640;2022-07-10T12:54:29;23.30;62.60
44461;DHT22;30162;53.642;10.640;2022-07-10T12:56:58;23.90;63.40
44461;DHT22;30162;53.642;10.640;2022-07-10T12:59:24;24.10;62.50
44461;DHT22;30162;53.642;10.640;2022-07-10T13:01:50;24.10;62.00
44461;DHT22;30162;53.642;10.640;2022-07-10T13:04:26;24.10;62.10
44461;DHT22;30162;53.642;10.640;2022-07-10T13:06:53;24.10;62.30
44461;DHT22;30162;53.642;10.640;2022-07-10T13:09:24;23.80;62.10
44461;DHT22;30162;53.642;10.640;2022-07-10T13:11:50;23.50;63.20
44461;DHT22;30162;53.642;10.640;2022-07-10T13:14:17;23.30;62.00
44461;DHT22;30162;53.642;10.640;2022-07-10T13:16:42;23.20;63.20
44461;DHT22;30162;53.642;10.640;2022-07-10T13:19:08;23.40;63.90
44461;DHT22;30162;53.642;10.640;2022-07-10T13:21:34;23.30;62.70
44461;DHT22;30162;53.642;10.640;2022-07-10T13:24:00;23.50;63.10
44461;DHT22;30162;53.642;10.640;2022-07-10T13:26:26;23.70;62.40
44461;DHT22;30162;53.642;10.640;2022-07-10T13:28:55;23.90;62.20
44461;DHT22;30162;53.642;10.640;2022-07-10T13:31:20;23.80;62.60
44461;DHT22;30162;53.642;10.640;2022-07-10T13:33:46;23.30;63.20
44461;DHT22;30162;53.642;10.640;2022-07-10T13:36:11;23.30;63.50
44461;DHT22;30162;53.642;10.640;2022-07-10T13:38:37;23.40;62.30
44461;DHT22;30162;53.642;10.640;2022-07-10T13:41:03;23.00;64.00
44461;DHT22;30162;53.642;10.640;2022-07-10T13:43:28;23.30;65.70
44461;DHT22;30162;53.642;10.640;2022-07-10T13:45:58;23.70;63.70
44461;DHT22;30162;53.642;10.640;2022-07-10T13:48:24;23.80;63.10
44461;DHT22;30162;53.642;10.640;2022-07-10T13:50:51;23.90;61.90
44461;DHT22;30162;53.642;10.640;2022-07-10T13:53:17;23.90;61.70
44461;DHT22;30162;53.642;10.640;2022-07-10T13:55:43;23.70;62.30
44461;DHT22;30162;53.642;10.640;2022-07-10T13:58:09;23.80;62.70
44461;DHT22;30162;53.642;10.640;2022-07-10T14:00:35;24.00;63.10
44461;DHT22;30162;53.642;10.640;2022-07-10T14:03:02;24.60;63.70
44461;DHT22;30162;53.642;10.640;2022-07-10T14:05:28;24.70;61.60
44461;DHT22;30162;53.642;10.640;2022-07-10T14:07:53;24.90;61.10
44461;DHT22;30162;53.642;10.640;2022-07-10T14:10:19;25.00;59.40
44461;DHT22;30162;53.642;10.640;2022-07-10T14:12:45;24.70;61.90
44461;DHT22;30162;53.642;10.640;2022-07-10T14:15:11;24.90;61.30
44461;DHT22;30162;53.642;10.640;2022-07-10T14:17:36;24.90;61.40
44461;DHT22;30162;53.642;10.640;2022-07-10T14:20:02;25.00;59.20
44461;DHT22;30162;53.642;10.640;2022-07-10T14:22:28;25.20;60.70
44461;DHT22;30162;53.642;10.640;2022-07-10T14:24:55;25.10;61.20
44461;DHT22;30162;53.642;10.640;2022-07-10T14:27:22;25.30;60.90
44461;DHT22;30162;53.642;10.640;2022-07-10T14:29:49;25.20;59.10
44461;DHT22;30162;53.642;10.640;2022-07-10T14:32:15;24.80;59.60
44461;DHT22;30162;53.642;10.640;2022-07-10T14:34:41;24.70;60.20
44461;DHT22;30162;53.642;10.640;2022-07-10T14:37:06;24.30;60.30
44461;DHT22;30162;53.642;10.640;2022-07-10T14:39:32;24.70;61.10
44461;DHT22;30162;53.642;10.640;2022-07-10T14:41:57;24.40;60.40
44461;DHT22;30162;53.642;10.640;2022-07-10T14:44:23;24.10;60.90
44461;DHT22;30162;53.642;10.640;2022-07-10T14:46:49;24.10;61.30
44461;DHT22;30162;53.642;10.640;2022-07-10T14:49:14;24.00;61.00
44461;DHT22;30162;53.642;10.640;2022-07-10T14:51:40;24.20;62.40
44461;DHT22;30162;53.642;10.640;2022-07-10T14:54:05;24.50;62.00
44461;DHT22;30162;53.642;10.640;2022-07-10T14:56:31;24.60;61.70
44461;DHT22;30162;53.642;10.640;2022-07-10T14:58:56;24.40;61.60
44461;DHT22;30162;53.642;10.640;2022-07-10T15:01:22;24.60;61.40
44461;DHT22;30162;53.642;10.640;2022-07-10T15:03:48;24.60;60.60
44461;DHT22;30162;53.642;10.640;2022-07-10T15:06:13;24.60;60.90
44461;DHT22;30162;53.642;10.640;2022-07-10T15:08:39;24.30;61.30
44461;DHT22;30162;53.642;10.640;2022-07-10T15:11:04;24.10;62.20
44461;DHT22;30162;53.642;10.640;2022-07-10T15:13:32;23.90;62.10
44461;DHT22;30162;53.642;10.640;2022-07-10T15:15:57;24.10;63.00
44461;DHT22;30162;53.642;10.640;2022-07-10T15:18:23;24.00;61.50
44461;DHT22;30162;53.642;10.640;2022-07-10T15:20:48;24.10;62.40
44461;DHT22;30162;53.642;10.640;2022-07-10T15:23:14;24.30;61.50
44461;DHT22;30162;53.642;10.640;2022-07-10T15:25:41;24.50;61.90
44461;DHT22;30162;53.642;10.640;2022-07-10T15:28:08;24.30;61.10
44461;DHT22;30162;53.642;10.640;2022-07-10T15:30:34;24.60;61.70
44461;DHT22;30162;53.642;10.640;2022-07-10T15:33:01;24.50;61.50
44461;DHT22;30162;53.642;10.640;2022-07-10T15:35:26;24.80;60.90
44461;DHT22;30162;53.642;10.640;2022-07-10T15:37:52;24.60;60.00
44461;DHT22;30162;53.642;10.640;2022-07-10T15:40:18;24.50;60.10
44461;DHT22;30162;53.642;10.640;2022-07-10T15:42:43;24.70;61.30
44461;DHT22;30162;53.642;10.640;2022-07-10T15:45:09;24.90;60.90